CheckWX is a tool to help pilots better visualize weather data.  It is not intended as a substitute for an official pre-flight weather briefing.

04:40:39 UTC

UUOO METAR
Voronezh International Airport
Voronezh, Russian Federation
Current

41 mins ago

UUOO 050400Z 11003MPS CAVOK 14/11 Q1013 R12/090070 NOSIG RMK QFE746
Observed
Jun-5 @ 04:00 UTC
Wind
  • 110° at 6 KTS
Visibility
10,000+ meters
Flight Rules
VFR
Cloud Levels
  • Clear skies
Temperature
14°C / 57°F
Dewpoint
11°C / 52°F
Humidity
82%
Altimeter
29.91" Hg
Pressure
1012.92 hPa
Previous

1 hour ago

UUOO 050330Z 09002MPS CAVOK 12/11 Q1013 R12/090070 NOSIG RMK QFE746
Observed
Jun-5 @ 03:30 UTC
Wind
  • 090° at 4 KTS
Visibility
10,000+ meters
Flight Rules
VFR
Cloud Levels
  • Clear skies
Temperature
12°C / 54°F
Dewpoint
11°C / 52°F
Humidity
94%
Altimeter
29.91" Hg
Pressure
1012.92 hPa
Previous

2 hours ago

UUOO 050300Z 11002MPS CAVOK 12/11 Q1013 R12/090070 NOSIG RMK QFE745
Observed
Jun-5 @ 03:00 UTC
Wind
  • 110° at 4 KTS
Visibility
10,000+ meters
Flight Rules
VFR
Cloud Levels
  • Clear skies
Temperature
12°C / 54°F
Dewpoint
11°C / 52°F
Humidity
94%
Altimeter
29.91" Hg
Pressure
1012.92 hPa